createdAt,value
2019-06-07T00:01:55.058Z,7.60
2019-06-07T00:04:59.276Z,9.53
2019-06-07T00:08:07.819Z,9.13
2019-06-07T00:11:11.052Z,10.40
2019-06-07T00:14:16.654Z,10.17
2019-06-07T00:17:21.280Z,10.43
2019-06-07T00:20:25.228Z,11.13
2019-06-07T00:23:29.459Z,15.63
2019-06-07T00:26:33.781Z,15.37
2019-06-07T00:29:38.202Z,10.67
2019-06-07T00:32:42.297Z,9.93
2019-06-07T00:35:46.278Z,9.43
2019-06-07T00:38:50.454Z,12.10
2019-06-07T00:41:54.784Z,13.47
2019-06-07T00:44:58.875Z,13.20
2019-06-07T00:48:02.774Z,11.67
2019-06-07T00:51:07.007Z,12.60
2019-06-07T00:54:12.408Z,10.83
2019-06-07T00:57:19.351Z,12.20
2019-06-07T01:00:25.502Z,10.60
2019-06-07T01:03:29.015Z,13.10
2019-06-07T01:06:33.011Z,11.00
2019-06-07T01:09:37.143Z,10.80
2019-06-07T01:12:41.143Z,11.50
2019-06-07T01:15:45.079Z,13.67
2019-06-07T01:18:51.290Z,9.90
2019-06-07T01:21:54.821Z,8.43
2019-06-07T01:24:59.001Z,8.83
2019-06-07T01:28:03.159Z,8.73
2019-06-07T01:31:07.341Z,8.07
2019-06-07T01:34:11.580Z,7.73
2019-06-07T01:37:16.871Z,7.60
2019-06-07T01:40:27.746Z,7.63
2019-06-07T01:43:30.467Z,6.97
2019-06-07T01:46:33.291Z,8.13
2019-06-07T01:49:37.458Z,7.13
2019-06-07T01:52:42.069Z,6.90
2019-06-07T01:55:46.283Z,8.07
2019-06-07T01:58:50.322Z,6.80
2019-06-07T02:01:54.518Z,7.73
2019-06-07T02:04:58.430Z,6.80
2019-06-07T02:08:02.606Z,7.50
2019-06-07T02:11:06.609Z,7.60
2019-06-07T02:14:10.886Z,7.10
2019-06-07T02:17:15.317Z,7.57
2019-06-07T02:20:20.356Z,7.50
2019-06-07T02:23:29.204Z,7.70
2019-06-07T02:26:32.527Z,7.93
2019-06-07T02:29:36.565Z,7.43
2019-06-07T02:32:41.038Z,6.43
2019-06-07T02:35:44.894Z,7.37
2019-06-07T02:38:49.065Z,7.57
2019-06-07T02:41:53.274Z,7.13
2019-06-07T02:44:57.521Z,7.70
2019-06-07T02:48:01.607Z,7.80
2019-06-07T02:51:05.452Z,8.40
2019-06-07T02:54:09.620Z,9.17
2019-06-07T02:57:14.034Z,9.63
2019-06-07T03:01:06.827Z,10.90
2019-06-07T03:04:00.322Z,13.70
2019-06-07T03:07:04.507Z,10.63
2019-06-07T03:10:10.533Z,13.20
2019-06-07T03:13:19.886Z,12.53
2019-06-07T03:16:31.200Z,10.07
2019-06-07T03:19:39.648Z,8.00
2019-06-07T03:22:44.009Z,11.33
2019-06-07T03:25:51.046Z,11.57
2019-06-07T03:28:55.957Z,8.90
2019-06-07T03:32:00.092Z,9.50
2019-06-07T03:35:04.575Z,9.57
2019-06-07T03:38:08.737Z,9.80
2019-06-07T03:41:13.032Z,6.73
2019-06-07T03:44:16.928Z,9.47
2019-06-07T03:47:21.119Z,6.83
2019-06-07T03:50:25.231Z,8.00
2019-06-07T03:53:30.497Z,9.17
2019-06-07T03:56:36.021Z,8.03
2019-06-07T03:59:41.581Z,7.97
2019-06-07T04:02:46.253Z,10.97
2019-06-07T04:05:50.550Z,12.23
2019-06-07T04:08:55.243Z,8.93
2019-06-07T04:11:59.741Z,8.20
2019-06-07T04:15:18.310Z,7.67
2019-06-07T04:18:23.349Z,7.50
2019-06-07T04:21:29.659Z,8.57
2019-06-07T04:24:34.668Z,7.20
2019-06-07T04:27:41.098Z,7.20
2019-06-07T04:30:46.039Z,6.60
2019-06-07T04:33:50.764Z,5.53
2019-06-07T04:36:59.467Z,5.83
2019-06-07T04:40:03.721Z,5.70
2019-06-07T04:43:08.306Z,5.30
2019-06-07T04:46:13.166Z,4.73
2019-06-07T04:49:20.499Z,4.53
2019-06-07T04:52:27.549Z,4.77
2019-06-07T04:55:31.542Z,6.10
2019-06-07T04:58:38.139Z,4.53
2019-06-07T05:01:42.810Z,4.47
2019-06-07T05:04:46.728Z,5.03
2019-06-07T05:07:51.076Z,4.87
2019-06-07T05:10:54.996Z,3.73
2019-06-07T05:13:59.161Z,4.30
2019-06-07T05:17:03.329Z,4.43
2019-06-07T05:20:07.780Z,4.47
2019-06-07T05:23:59.400Z,5.13
2019-06-07T05:26:17.893Z,5.60
2019-06-07T05:29:21.908Z,7.47
2019-06-07T05:32:26.529Z,5.77
2019-06-07T05:35:33.082Z,6.97
2019-06-07T05:38:42.236Z,7.13
2019-06-07T05:41:44.411Z,7.27
2019-06-07T05:44:48.846Z,6.40
2019-06-07T05:47:53.058Z,5.33
2019-06-07T05:50:57.890Z,7.50
2019-06-07T05:54:02.382Z,5.67
2019-06-07T05:57:06.287Z,5.23
2019-06-07T06:00:10.285Z,5.53
2019-06-07T06:03:14.200Z,6.10
2019-06-07T06:06:18.987Z,5.43
2019-06-07T06:09:23.336Z,5.97
2019-06-07T06:12:35.482Z,5.90
2019-06-07T06:15:46.368Z,6.33
2019-06-07T06:18:40.549Z,6.67
2019-06-07T06:21:46.439Z,6.23
2019-06-07T06:25:29.950Z,6.40
2019-06-07T06:28:09.861Z,6.53
2019-06-07T06:31:01.792Z,6.53
2019-06-07T06:34:06.458Z,7.70
2019-06-07T06:37:10.664Z,7.30
2019-06-07T06:40:14.667Z,6.30
2019-06-07T06:43:18.662Z,6.70
2019-06-07T06:46:38.243Z,6.73
2019-06-07T06:49:28.999Z,5.67
2019-06-07T06:52:32.839Z,5.27
2019-06-07T06:55:36.788Z,5.63
2019-06-07T06:59:21.898Z,5.50
2019-06-07T07:01:49.409Z,5.23
2019-06-07T07:04:54.030Z,5.63
2019-06-07T07:07:58.515Z,5.40
2019-06-07T07:11:03.456Z,6.40
2019-06-07T07:14:07.632Z,5.60
2019-06-07T07:17:11.509Z,5.83
2019-06-07T07:20:15.674Z,6.27
2019-06-07T07:23:20.148Z,6.30
2019-06-07T07:26:24.042Z,6.43
2019-06-07T07:29:28.940Z,6.33
2019-06-07T07:32:33.141Z,6.40
2019-06-07T07:35:37.076Z,7.40
2019-06-07T07:38:41.279Z,5.53
2019-06-07T07:42:10.970Z,6.70
2019-06-07T07:44:55.099Z,6.83
2019-06-07T07:48:13.342Z,6.30
2019-06-07T07:51:03.640Z,5.77
2019-06-07T07:54:10.906Z,6.10
2019-06-07T07:57:13.342Z,6.30
2019-06-07T08:00:49.614Z,6.67
2019-06-07T08:03:24.054Z,6.13
2019-06-07T08:06:28.334Z,5.97
2019-06-07T08:09:32.240Z,5.70
2019-06-07T08:12:55.791Z,6.43
2019-06-07T08:15:42.053Z,5.83
2019-06-07T08:18:51.043Z,7.07
2019-06-07T08:21:53.074Z,6.47
2019-06-07T08:24:59.950Z,6.10
2019-06-07T08:28:03.251Z,7.27
2019-06-07T08:31:07.897Z,7.30
2019-06-07T08:34:12.058Z,6.80
2019-06-07T08:37:15.968Z,6.40
2019-06-07T08:40:20.763Z,6.67
2019-06-07T08:43:25.188Z,6.43
2019-06-07T08:46:29.110Z,5.83
2019-06-07T08:49:33.296Z,5.53
2019-06-07T08:52:38.096Z,5.63
2019-06-07T08:55:43.165Z,5.90
2019-06-07T08:58:47.391Z,6.10
2019-06-07T09:01:53.776Z,6.20
2019-06-07T09:05:03.158Z,5.93
2019-06-07T09:08:23.837Z,5.97
2019-06-07T09:11:11.113Z,6.03
2019-06-07T09:14:15.108Z,5.43
2019-06-07T09:17:19.031Z,4.90
2019-06-07T09:20:36.458Z,5.90
2019-06-07T09:23:30.009Z,4.90
2019-06-07T09:26:34.596Z,5.77
2019-06-07T09:29:39.472Z,5.50
2019-06-07T09:32:43.554Z,5.37
2019-06-07T09:35:47.541Z,5.03
2019-06-07T09:38:51.888Z,6.27
2019-06-07T09:41:56.515Z,4.70
2019-06-07T09:45:04.349Z,5.53
2019-06-07T09:48:13.602Z,5.93
2019-06-07T09:51:19.933Z,5.50
2019-06-07T09:57:25.593Z,5.10
2019-06-07T10:00:41.241Z,5.90
2019-06-07T10:03:35.422Z,5.97
2019-06-07T10:06:39.375Z,5.53
2019-06-07T10:10:25.619Z,6.67
2019-06-07T10:13:10.224Z,7.47
2019-06-07T10:16:14.305Z,6.10
2019-06-07T10:19:18.499Z,5.80
2019-06-07T10:22:22.427Z,6.03
2019-06-07T10:25:27.250Z,6.43
2019-06-07T10:28:31.544Z,6.00
2019-06-07T10:31:35.767Z,5.33
2019-06-07T10:34:39.701Z,6.10
2019-06-07T10:37:43.900Z,6.37
2019-06-07T10:40:47.980Z,6.47
2019-06-07T10:43:51.834Z,5.73
2019-06-07T10:46:59.130Z,7.10
2019-06-07T10:50:02.236Z,5.60
2019-06-07T10:53:06.519Z,6.13
2019-06-07T10:56:11.144Z,5.30
2019-06-07T10:59:15.030Z,5.50
2019-06-07T11:02:19.609Z,5.70
2019-06-07T11:05:24.036Z,5.13
2019-06-07T11:08:28.580Z,4.93
2019-06-07T11:11:32.779Z,5.53
2019-06-07T11:14:36.865Z,5.10
2019-06-07T11:17:41.115Z,5.23
2019-06-07T11:20:44.948Z,5.17
2019-06-07T11:23:48.937Z,6.07
2019-06-07T11:26:53.036Z,3.93
2019-06-07T11:29:56.871Z,4.33
2019-06-07T11:33:00.805Z,5.20
2019-06-07T11:36:04.890Z,4.90
2019-06-07T11:39:11.089Z,5.20
2019-06-07T11:42:15.536Z,4.93
2019-06-07T11:45:20.043Z,4.37
2019-06-07T11:48:24.278Z,4.20
2019-06-07T11:51:28.776Z,4.57
2019-06-07T11:54:33.404Z,4.90
2019-06-07T11:57:37.916Z,5.10
2019-06-07T12:00:42.216Z,4.30
2019-06-07T12:03:46.377Z,4.33
2019-06-07T12:06:50.663Z,4.10
2019-06-07T12:09:56.605Z,4.33
2019-06-07T12:13:01.693Z,5.00
2019-06-07T12:16:06.632Z,4.23
2019-06-07T12:19:11.944Z,4.07
2019-06-07T12:22:16.136Z,4.00
2019-06-07T12:25:24.826Z,4.00
2019-06-07T12:28:26.790Z,3.90
2019-06-07T12:31:31.670Z,3.67
2019-06-07T12:34:36.392Z,4.03
2019-06-07T12:37:44.366Z,3.90
2019-06-07T12:40:57.330Z,3.93
2019-06-07T12:43:51.849Z,3.60
2019-06-07T12:46:56.104Z,3.60
2019-06-07T12:50:00.324Z,4.20
2019-06-07T12:53:05.141Z,3.80
2019-06-07T12:56:09.002Z,4.20
2019-06-07T12:59:13.914Z,3.70
2019-06-07T13:02:20.029Z,3.60
2019-06-07T13:05:24.501Z,3.77
2019-06-07T13:08:28.725Z,3.50
2019-06-07T13:11:32.842Z,3.53
2019-06-07T13:14:36.680Z,3.27
2019-06-07T13:17:40.582Z,3.50
2019-06-07T13:20:45.119Z,3.50
2019-06-07T13:23:49.754Z,3.47
2019-06-07T13:26:53.899Z,3.20
2019-06-07T13:29:57.763Z,3.00
2019-06-07T13:33:01.849Z,3.70
2019-06-07T13:36:05.867Z,3.33
2019-06-07T13:39:10.308Z,3.00
2019-06-07T13:42:14.532Z,3.20
2019-06-07T13:45:20.011Z,3.00
2019-06-07T13:48:25.243Z,3.07
2019-06-07T13:51:29.191Z,3.27
2019-06-07T13:54:33.784Z,3.00
2019-06-07T13:57:37.987Z,3.13
2019-06-07T14:00:41.828Z,2.93
2019-06-07T14:03:46.228Z,3.00
2019-06-07T14:06:50.594Z,3.23
2019-06-07T14:09:54.745Z,2.87
2019-06-07T14:12:58.836Z,2.77
2019-06-07T14:16:02.975Z,2.63
2019-06-07T14:19:07.415Z,2.70
2019-06-07T14:22:11.546Z,2.60
2019-06-07T14:25:17.379Z,2.80
2019-06-07T14:28:24.579Z,2.67
2019-06-07T14:31:28.169Z,2.70
2019-06-07T14:34:33.105Z,2.80
2019-06-07T14:37:37.120Z,2.70
2019-06-07T14:40:41.084Z,2.70
2019-06-07T14:43:45.029Z,2.53
2019-06-07T14:46:49.917Z,2.90
2019-06-07T14:49:53.793Z,2.80
2019-06-07T14:52:58.088Z,2.60
2019-06-07T14:56:03.111Z,2.43
2019-06-07T14:59:07.445Z,2.70
2019-06-07T15:02:11.604Z,2.57
2019-06-07T15:05:15.960Z,2.50
2019-06-07T15:08:19.933Z,2.43
2019-06-07T15:11:24.094Z,2.50
2019-06-07T15:14:29.339Z,2.50
2019-06-07T15:17:33.814Z,2.20
2019-06-07T15:20:38.920Z,2.53
2019-06-07T15:23:43.528Z,2.40
2019-06-07T15:26:47.781Z,2.40
2019-06-07T15:29:51.974Z,2.53
2019-06-07T15:32:58.920Z,2.60
2019-06-07T15:36:01.769Z,2.67
2019-06-07T15:39:07.555Z,2.40
2019-06-07T15:42:11.821Z,2.70
2019-06-07T15:45:16.457Z,2.40
2019-06-07T15:48:20.381Z,2.40
2019-06-07T15:51:24.893Z,2.63
2019-06-07T15:54:28.744Z,2.40
2019-06-07T15:57:33.357Z,2.63
2019-06-07T16:00:37.662Z,2.63
2019-06-07T16:03:42.156Z,2.40
2019-06-07T16:06:46.710Z,2.57
2019-06-07T16:09:51.237Z,2.50
2019-06-07T16:13:00.491Z,2.70
2019-06-07T16:16:00.739Z,2.53
2019-06-07T16:19:04.729Z,2.60
2019-06-07T16:22:08.726Z,2.77
2019-06-07T16:25:13.185Z,2.87
2019-06-07T16:28:17.267Z,2.67
2019-06-07T16:31:21.429Z,2.37
2019-06-07T16:34:25.517Z,6.37
2019-06-07T16:37:29.996Z,4.40
2019-06-07T16:40:34.463Z,2.63
2019-06-07T16:43:38.661Z,2.60
2019-06-07T16:46:42.990Z,2.37
2019-06-07T16:49:47.063Z,2.73
2019-06-07T16:52:51.289Z,2.33
2019-06-07T16:55:55.257Z,2.40
2019-06-07T16:58:59.368Z,2.10
2019-06-07T17:02:03.403Z,3.10
2019-06-07T17:05:08.783Z,3.37
2019-06-07T17:08:12.961Z,2.70
2019-06-07T17:11:17.285Z,2.20
2019-06-07T17:14:21.439Z,2.07
2019-06-07T17:17:25.927Z,2.00
2019-06-07T17:20:30.088Z,2.30
2019-06-07T17:23:34.035Z,2.17
2019-06-07T17:26:39.418Z,2.20
2019-06-07T17:29:45.810Z,2.20
2019-06-07T17:32:57.620Z,2.03
2019-06-07T17:35:56.181Z,1.90
2019-06-07T17:39:00.280Z,2.30
2019-06-07T17:42:04.817Z,2.27
2019-06-07T17:45:10.054Z,1.97
2019-06-07T17:48:14.082Z,2.60
2019-06-07T17:51:17.999Z,2.20
2019-06-07T17:54:22.221Z,2.50
2019-06-07T17:57:26.426Z,2.37
2019-06-07T18:00:47.530Z,1.80
2019-06-07T18:03:53.224Z,1.90
2019-06-07T18:06:57.892Z,1.60
2019-06-07T18:10:03.153Z,1.20
2019-06-07T18:13:07.503Z,1.20
2019-06-07T18:16:11.647Z,1.20
2019-06-07T18:19:15.567Z,0.90
2019-06-07T18:22:19.854Z,1.07
2019-06-07T18:25:24.170Z,0.77
2019-06-07T18:28:28.258Z,0.80
2019-06-07T18:31:32.701Z,0.90
2019-06-07T18:34:37.051Z,0.90
2019-06-07T18:37:40.888Z,0.60
2019-06-07T18:40:45.054Z,0.60
2019-06-07T18:43:49.268Z,0.70
2019-06-07T18:46:54.397Z,0.80
2019-06-07T18:49:58.919Z,0.50
2019-06-07T18:53:02.808Z,0.63
2019-06-07T18:56:07.118Z,0.50
2019-06-07T18:59:10.958Z,0.30
2019-06-07T19:02:15.188Z,0.57
2019-06-07T19:05:20.270Z,0.40
2019-06-07T19:08:24.318Z,0.30
2019-06-07T19:11:28.526Z,0.50
2019-06-07T19:14:36.981Z,0.40
2019-06-07T19:17:38.596Z,0.40
2019-06-07T19:20:42.901Z,0.40
2019-06-07T19:23:46.851Z,0.40
2019-06-07T19:26:52.505Z,0.67
2019-06-07T19:29:56.863Z,0.70
2019-06-07T19:33:01.526Z,0.60
2019-06-07T19:36:05.829Z,0.77
2019-06-07T19:39:09.828Z,0.70
2019-06-07T19:42:13.989Z,0.80
2019-06-07T19:45:30.152Z,0.50
2019-06-07T19:48:24.469Z,0.53
2019-06-07T19:51:28.396Z,0.60
2019-06-07T19:54:32.387Z,0.93
2019-06-07T19:57:36.611Z,0.90
2019-06-07T20:00:40.484Z,0.97
2019-06-07T20:03:44.465Z,0.93
2019-06-07T20:06:48.970Z,0.90
2019-06-07T20:09:54.393Z,1.00
2019-06-07T20:12:58.773Z,0.87
2019-06-07T20:16:03.112Z,0.87
2019-06-07T20:19:09.057Z,1.17
2019-06-07T20:22:13.065Z,1.17
2019-06-07T20:25:17.752Z,0.97
2019-06-07T20:28:21.765Z,1.03
2019-06-07T20:31:26.011Z,1.10
2019-06-07T20:34:30.120Z,1.17
2019-06-07T20:37:34.184Z,1.13
2019-06-07T20:40:38.108Z,0.93
2019-06-07T20:43:41.970Z,1.00
2019-06-07T20:46:46.137Z,1.10
2019-06-07T20:49:49.993Z,1.00
2019-06-07T20:52:54.155Z,0.93
2019-06-07T20:55:58.530Z,1.30
2019-06-07T20:59:02.852Z,0.70
2019-06-07T21:02:07.293Z,1.00
2019-06-07T21:05:11.231Z,1.20
2019-06-07T21:08:15.220Z,1.10
2019-06-07T21:11:19.383Z,0.90
2019-06-07T21:14:23.559Z,0.90
2019-06-07T21:17:27.824Z,0.87
2019-06-07T21:20:34.038Z,0.90
2019-06-07T21:23:38.086Z,0.73
2019-06-07T21:26:42.301Z,1.20
2019-06-07T21:29:46.241Z,1.60
2019-06-07T21:32:50.428Z,1.70
2019-06-07T21:35:54.640Z,1.53
2019-06-07T21:38:58.904Z,2.00
2019-06-07T21:42:04.226Z,1.90
2019-06-07T21:45:09.820Z,1.47
2019-06-07T21:48:14.548Z,1.40
2019-06-07T21:51:18.440Z,1.10
2019-06-07T21:54:22.625Z,1.10
2019-06-07T21:57:26.816Z,1.70
2019-06-07T22:01:18.208Z,1.23
2019-06-07T22:04:22.105Z,1.40
2019-06-07T22:07:26.561Z,1.23
2019-06-07T22:10:30.655Z,1.20
2019-06-07T22:13:34.504Z,1.70
2019-06-07T22:16:38.603Z,1.63
2019-06-07T22:19:42.709Z,2.37
2019-06-07T22:22:47.198Z,2.40
2019-06-07T22:25:51.436Z,3.03
2019-06-07T22:28:55.739Z,1.93
2019-06-07T22:32:00.266Z,1.97
2019-06-07T22:35:04.693Z,2.23
2019-06-07T22:38:10.205Z,2.37
2019-06-07T22:41:15.726Z,1.90
2019-06-07T22:44:20.094Z,1.93
2019-06-07T22:47:24.256Z,1.53
2019-06-07T22:50:28.346Z,1.47
2019-06-07T22:53:32.221Z,1.20
2019-06-07T22:56:41.204Z,1.30
2019-06-07T22:59:45.043Z,1.10
2019-06-07T23:02:48.916Z,1.03
2019-06-07T23:05:53.236Z,1.20
2019-06-07T23:08:57.635Z,1.00
2019-06-07T23:12:01.489Z,1.40
2019-06-07T23:15:05.724Z,1.10
2019-06-07T23:18:09.585Z,0.90
2019-06-07T23:21:13.821Z,1.10
2019-06-07T23:24:20.126Z,1.03
2019-06-07T23:27:23.840Z,0.93
2019-06-07T23:30:28.196Z,1.37
2019-06-07T23:33:32.362Z,1.90
2019-06-07T23:36:36.840Z,2.23
2019-06-07T23:39:41.102Z,3.30
2019-06-07T23:42:45.464Z,3.23
2019-06-07T23:45:49.709Z,2.83
2019-06-07T23:48:53.983Z,2.77
2019-06-07T23:51:58.353Z,2.80
2019-06-07T23:55:02.729Z,2.33
2019-06-07T23:58:06.906Z,2.67
